createdAt,value
2019-01-03T00:01:11.175Z,86.80
2019-01-03T00:05:38.183Z,86.50
2019-01-03T00:10:06.915Z,86.60
2019-01-03T00:14:23.575Z,85.50
2019-01-03T00:18:49.706Z,84.70
2019-01-03T00:23:18.757Z,84.70
2019-01-03T00:27:58.656Z,87.20
2019-01-03T00:32:44.726Z,88.80
2019-01-03T00:37:05.301Z,85.10
2019-01-03T00:41:22.489Z,84.60
2019-01-03T00:45:44.844Z,84.10
2019-01-03T00:50:02.708Z,83.20
2019-01-03T00:54:30.098Z,82.50
2019-01-03T01:03:24.849Z,82.40
2019-01-03T01:07:52.956Z,81.90
2019-01-03T01:12:19.308Z,82.00
2019-01-03T01:16:48.681Z,82.00
2019-01-03T01:21:03.050Z,82.00
2019-01-03T01:25:31.176Z,81.10
2019-01-03T01:30:09.342Z,80.10
2019-01-03T01:34:34.861Z,79.40
2019-01-03T01:39:03.115Z,78.40
2019-01-03T01:43:24.229Z,77.90
2019-01-03T01:47:45.020Z,76.60
2019-01-03T01:52:10.256Z,76.30
2019-01-03T01:56:24.038Z,75.50
2019-01-03T02:00:42.693Z,75.30
2019-01-03T02:05:03.089Z,75.20
2019-01-03T02:09:28.456Z,74.80
2019-01-03T02:13:53.928Z,75.30
2019-01-03T02:18:19.526Z,76.10
2019-01-03T02:22:45.397Z,76.30
2019-01-03T02:27:09.588Z,76.90
2019-01-03T02:31:34.428Z,79.10
2019-01-03T02:35:52.343Z,81.20
2019-01-03T02:40:20.071Z,83.50
2019-01-03T02:44:34.075Z,85.00
2019-01-03T02:48:59.513Z,85.10
2019-01-03T02:53:25.199Z,86.20
2019-01-03T02:57:53.893Z,86.90
2019-01-03T03:02:12.855Z,86.60
2019-01-03T03:06:32.985Z,86.90
2019-01-03T03:10:58.692Z,86.40
2019-01-03T03:15:29.370Z,86.10
2019-01-03T03:19:48.056Z,85.60
2019-01-03T03:24:13.070Z,85.20
2019-01-03T03:28:34.574Z,84.30
2019-01-03T03:32:53.448Z,83.70
2019-01-03T03:37:13.268Z,82.90
2019-01-03T03:41:34.531Z,82.80
2019-01-03T03:46:00.071Z,82.20
2019-01-03T03:50:13.710Z,82.30
2019-01-03T03:54:35.454Z,82.40
2019-01-03T03:59:03.145Z,82.90
2019-01-03T04:03:29.276Z,83.70
2019-01-03T04:07:52.640Z,84.10
2019-01-03T04:12:12.648Z,84.50
2019-01-03T04:16:34.616Z,84.40
2019-01-03T04:21:00.906Z,83.80
2019-01-03T04:25:26.688Z,84.20
2019-01-03T04:29:54.989Z,84.50
2019-01-03T04:34:14.047Z,84.20
2019-01-03T04:38:34.103Z,84.20
2019-01-03T04:42:53.664Z,84.40
2019-01-03T04:47:18.880Z,84.70
2019-01-03T04:51:45.234Z,84.10
2019-01-03T05:00:42.380Z,83.90
2019-01-03T05:05:07.566Z,84.00
2019-01-03T05:09:38.497Z,84.10
2019-01-03T05:13:59.763Z,83.90
2019-01-03T05:18:20.332Z,83.50
2019-01-03T05:22:37.794Z,84.30
2019-01-03T05:27:03.257Z,83.90
2019-01-03T05:31:18.737Z,84.30
2019-01-03T05:35:44.082Z,84.10
2019-01-03T05:40:08.396Z,84.30
2019-01-03T05:44:34.229Z,83.50
2019-01-03T05:49:01.849Z,84.10
2019-01-03T05:53:24.888Z,83.80
2019-01-03T05:58:03.957Z,84.30
2019-01-03T06:02:30.431Z,83.40
2019-01-03T06:11:18.082Z,85.60
2019-01-03T06:15:45.201Z,84.10
2019-01-03T06:20:06.435Z,84.20
2019-01-03T06:24:22.930Z,84.40
2019-01-03T06:28:48.370Z,84.40
2019-01-03T06:33:16.712Z,84.40
2019-01-03T06:42:07.600Z,85.20
2019-01-03T06:46:33.497Z,85.10
2019-01-03T06:50:59.127Z,85.40
2019-01-03T06:55:25.780Z,85.50
2019-01-03T06:59:51.747Z,85.30
2019-01-03T07:04:28.359Z,84.60
2019-01-03T07:09:00.415Z,84.70
2019-01-03T07:13:19.651Z,84.10
2019-01-03T07:17:38.029Z,83.50
2019-01-03T07:22:03.499Z,83.10
2019-01-03T07:26:29.146Z,82.40
2019-01-03T07:30:38.428Z,82.50
2019-01-03T07:35:03.900Z,82.00
2019-01-03T07:39:30.814Z,80.80
2019-01-03T07:44:00.021Z,81.30
2019-01-03T07:48:26.915Z,80.70
2019-01-03T07:52:52.397Z,81.20
2019-01-03T07:57:38.355Z,85.70
2019-01-03T08:02:01.711Z,81.40
2019-01-03T08:06:20.740Z,79.60
2019-01-03T08:10:44.442Z,80.10
2019-01-03T08:15:10.614Z,80.90
2019-01-03T08:19:36.484Z,75.90
2019-01-03T08:24:04.748Z,74.80
2019-01-03T08:28:31.499Z,74.80
2019-01-03T08:33:02.168Z,74.30
2019-01-03T08:37:29.112Z,72.10
2019-01-03T08:42:24.034Z,71.30
2019-01-03T08:46:43.130Z,71.80
2019-01-03T08:51:09.653Z,70.80
2019-01-03T08:55:35.780Z,70.30
2019-01-03T09:04:43.065Z,70.60
2019-01-03T09:09:08.356Z,67.10
2019-01-03T09:13:25.362Z,66.90
2019-01-03T09:17:44.311Z,65.30
2019-01-03T09:22:02.530Z,63.40
2019-01-03T09:26:22.619Z,63.90
2019-01-03T09:30:43.436Z,61.90
2019-01-03T09:35:02.829Z,63.30
2019-01-03T09:39:28.631Z,61.20
2019-01-03T09:43:55.485Z,60.70
2019-01-03T09:48:09.672Z,59.40
2019-01-03T09:52:18.061Z,59.40
2019-01-03T09:56:24.639Z,54.90
2019-01-03T10:00:32.143Z,56.70
2019-01-03T10:04:40.069Z,57.00
2019-01-03T10:08:47.638Z,52.90
2019-01-03T10:12:54.468Z,51.90
2019-01-03T10:17:01.376Z,51.40
2019-01-03T10:21:18.128Z,51.30
2019-01-03T10:25:26.593Z,49.50
2019-01-03T10:29:39.793Z,49.30
2019-01-03T10:33:46.405Z,48.10
2019-01-03T10:37:54.722Z,47.80
2019-01-03T10:42:00.841Z,47.80
2019-01-03T10:46:08.376Z,47.50
2019-01-03T10:50:15.152Z,46.70
2019-01-03T10:54:26.389Z,47.10
2019-01-03T10:58:32.799Z,47.30
2019-01-03T11:03:01.682Z,46.90
2019-01-03T11:07:09.546Z,46.80
2019-01-03T11:11:17.790Z,47.70
2019-01-03T11:15:25.799Z,47.30
2019-01-03T11:19:34.296Z,47.00
2019-01-03T11:27:49.418Z,48.10
2019-01-03T11:32:00.355Z,47.70
2019-01-03T11:36:10.093Z,48.70
2019-01-03T11:40:17.835Z,50.70
2019-01-03T11:44:24.715Z,49.70
2019-01-03T11:48:33.036Z,50.50
2019-01-03T11:52:44.161Z,51.60
2019-01-03T11:56:51.229Z,50.60
2019-01-03T12:00:59.545Z,50.90
2019-01-03T12:05:07.282Z,54.30
2019-01-03T12:09:14.258Z,52.40
2019-01-03T12:13:24.238Z,53.10
2019-01-03T12:17:47.480Z,53.90
2019-01-03T12:21:55.910Z,54.30
2019-01-03T12:26:04.419Z,54.30
2019-01-03T12:30:12.742Z,54.70
2019-01-03T12:34:19.661Z,54.70
2019-01-03T12:38:28.061Z,54.30
2019-01-03T12:42:35.967Z,54.30
2019-01-03T12:46:44.425Z,55.00
2019-01-03T12:50:53.837Z,54.70
2019-01-03T12:55:00.271Z,55.60
2019-01-03T12:59:11.388Z,55.50
2019-01-03T13:03:17.897Z,55.10
2019-01-03T13:07:26.455Z,54.30
2019-01-03T13:11:32.883Z,54.60
2019-01-03T13:15:44.680Z,55.10
2019-01-03T13:19:56.675Z,55.10
2019-01-03T13:24:03.737Z,56.50
2019-01-03T13:28:11.809Z,58.30
2019-01-03T13:32:18.668Z,55.70
2019-01-03T13:36:25.028Z,56.60
2019-01-03T13:40:32.039Z,56.10
2019-01-03T13:44:38.905Z,56.80
2019-01-03T13:48:47.422Z,57.40
2019-01-03T13:52:54.078Z,58.00
2019-01-03T13:57:02.974Z,58.10
2019-01-03T14:01:51.903Z,58.40
2019-01-03T14:06:00.080Z,57.90
2019-01-03T14:10:11.151Z,58.10
2019-01-03T14:14:18.489Z,59.30
2019-01-03T14:18:25.042Z,58.40
2019-01-03T14:22:30.982Z,59.90
2019-01-03T14:26:39.183Z,59.80
2019-01-03T14:34:53.590Z,61.50
2019-01-03T14:39:01.447Z,61.10
2019-01-03T14:47:50.391Z,60.70
2019-01-03T14:51:57.095Z,64.90
2019-01-03T14:56:05.000Z,63.30
2019-01-03T15:00:14.189Z,62.70
2019-01-03T15:04:24.830Z,63.10
2019-01-03T15:08:32.062Z,63.50
2019-01-03T15:12:39.152Z,63.60
2019-01-03T15:16:49.830Z,64.30
2019-01-03T15:25:12.315Z,64.00
2019-01-03T15:29:18.935Z,63.70
2019-01-03T15:33:27.676Z,62.20
2019-01-03T15:37:34.473Z,62.90
2019-01-03T15:41:44.594Z,62.60
2019-01-03T15:45:51.690Z,62.80
2019-01-03T15:49:58.102Z,63.80
2019-01-03T15:54:05.593Z,62.60
2019-01-03T15:58:13.953Z,62.00
2019-01-03T16:02:21.994Z,60.90
2019-01-03T16:06:35.334Z,62.40
2019-01-03T16:10:50.208Z,61.50
2019-01-03T16:15:05.014Z,62.60
2019-01-03T16:19:12.176Z,62.10
2019-01-03T16:23:19.672Z,61.80
2019-01-03T16:27:27.892Z,61.60
2019-01-03T16:31:36.133Z,62.70
2019-01-03T16:35:48.014Z,63.30
2019-01-03T16:39:52.597Z,63.10
2019-01-03T16:44:05.115Z,62.10
2019-01-03T16:48:11.645Z,63.30
2019-01-03T16:52:21.549Z,63.70
2019-01-03T16:56:28.130Z,63.50
2019-01-03T17:00:34.967Z,63.50
2019-01-03T17:08:51.503Z,64.60
2019-01-03T17:12:58.040Z,64.70
2019-01-03T17:17:04.627Z,65.10
2019-01-03T17:21:12.030Z,65.30
2019-01-03T17:25:22.918Z,64.60
2019-01-03T17:29:35.911Z,64.70
2019-01-03T17:33:44.747Z,65.00
2019-01-03T17:37:57.980Z,65.60
2019-01-03T17:42:38.124Z,64.70
2019-01-03T17:46:44.848Z,64.80
2019-01-03T17:50:52.079Z,64.60
2019-01-03T17:55:00.561Z,64.30
2019-01-03T17:59:07.869Z,64.60
2019-01-03T18:03:16.241Z,64.40
2019-01-03T18:07:23.485Z,65.70
2019-01-03T18:11:29.874Z,62.70
2019-01-03T18:15:39.451Z,65.10
2019-01-03T18:19:47.686Z,64.80
2019-01-03T18:24:17.697Z,65.30
2019-01-03T18:28:25.790Z,65.40
2019-01-03T18:32:33.748Z,66.20
2019-01-03T18:36:40.841Z,65.70
2019-01-03T18:40:48.865Z,65.90
2019-01-03T18:44:55.800Z,66.60
2019-01-03T18:49:05.478Z,66.00
2019-01-03T18:53:12.090Z,66.10
2019-01-03T18:57:26.021Z,67.40
2019-01-03T19:01:34.149Z,67.30
2019-01-03T19:05:41.490Z,70.30
2019-01-03T19:09:49.001Z,67.60
2019-01-03T19:13:56.027Z,67.90
2019-01-03T19:18:02.471Z,71.50
2019-01-03T19:22:36.842Z,68.10
2019-01-03T19:26:43.880Z,69.00
2019-01-03T19:30:51.588Z,69.70
2019-01-03T19:35:02.834Z,68.40
2019-01-03T19:39:11.505Z,69.30
2019-01-03T19:43:17.673Z,68.40
2019-01-03T19:47:24.878Z,69.40
2019-01-03T19:51:32.956Z,70.50
2019-01-03T19:55:47.920Z,68.80
2019-01-03T19:59:54.838Z,70.10
2019-01-03T20:04:05.297Z,70.10
2019-01-03T20:08:13.749Z,70.00
2019-01-03T20:13:02.527Z,70.60
2019-01-03T20:17:12.496Z,71.10
2019-01-03T20:25:40.493Z,71.00
2019-01-03T20:29:47.081Z,71.20
2019-01-03T20:33:55.677Z,70.70
2019-01-03T20:38:13.573Z,71.30
2019-01-03T20:42:24.373Z,71.00
2019-01-03T20:46:52.912Z,71.00
2019-01-03T20:51:00.608Z,71.30
2019-01-03T20:55:09.212Z,71.70
2019-01-03T20:59:21.540Z,71.50
2019-01-03T21:03:28.128Z,72.20
2019-01-03T21:07:36.666Z,72.10
2019-01-03T21:11:43.407Z,72.20
2019-01-03T21:15:51.180Z,72.30
2019-01-03T21:20:00.612Z,73.20
2019-01-03T21:24:07.680Z,73.00
2019-01-03T21:28:14.862Z,72.10
2019-01-03T21:32:26.010Z,71.50
2019-01-03T21:36:32.558Z,72.40
2019-01-03T21:40:44.069Z,72.80
2019-01-03T21:44:51.144Z,72.10
2019-01-03T21:53:27.314Z,72.40
2019-01-03T21:57:35.065Z,72.40
2019-01-03T22:05:53.522Z,72.40
2019-01-03T22:10:01.180Z,73.20
2019-01-03T22:14:08.485Z,76.00
2019-01-03T22:18:15.079Z,73.30
2019-01-03T22:22:26.302Z,73.30
2019-01-03T22:26:32.782Z,72.50
2019-01-03T22:30:40.582Z,74.60
2019-01-03T22:34:48.267Z,76.50
2019-01-03T22:38:56.273Z,73.50
2019-01-03T22:47:12.718Z,72.90
2019-01-03T22:51:26.799Z,74.10
2019-01-03T22:55:36.457Z,73.90
2019-01-03T22:59:45.780Z,74.00
2019-01-03T23:03:53.281Z,73.90
2019-01-03T23:08:00.165Z,73.50
2019-01-03T23:12:12.225Z,73.00
2019-01-03T23:16:18.617Z,73.30
2019-01-03T23:20:29.326Z,71.60
2019-01-03T23:24:35.712Z,72.60
2019-01-03T23:32:50.563Z,73.80
2019-01-03T23:36:59.359Z,73.60
2019-01-03T23:41:06.618Z,73.00
2019-01-03T23:45:18.730Z,73.70
2019-01-03T23:49:29.905Z,73.00
2019-01-03T23:53:36.769Z,74.40
2019-01-03T23:57:45.058Z,73.90
